sensor_id;sensor_type;location;lat;lon;timestamp;P1;durP1;ratioP1;P2;durP2;ratioP2
21488;SDS011;10906;45.194;5.684;2023-08-24T04:34:56;9.80;;;5.22;;
21488;SDS011;10906;45.194;5.684;2023-08-24T04:37:42;12.68;;;5.65;;
21488;SDS011;10906;45.194;5.684;2023-08-24T04:40:26;11.85;;;6.43;;
21488;SDS011;10906;45.194;5.684;2023-08-24T04:43:11;15.75;;;5.18;;
21488;SDS011;10906;45.194;5.684;2023-08-24T04:45:55;11.32;;;5.40;;
21488;SDS011;10906;45.194;5.684;2023-08-24T04:48:43;11.35;;;5.03;;
21488;SDS011;10906;45.194;5.684;2023-08-24T04:51:27;12.45;;;5.75;;
21488;SDS011;10906;45.194;5.684;2023-08-24T04:54:13;12.00;;;6.00;;
21488;SDS011;10906;45.194;5.684;2023-08-24T04:56:57;11.30;;;5.20;;
21488;SDS011;10906;45.194;5.684;2023-08-24T04:59:43;12.05;;;5.78;;
21488;SDS011;10906;45.194;5.684;2023-08-24T05:02:37;15.82;;;5.85;;
21488;SDS011;10906;45.194;5.684;2023-08-24T05:05:25;11.68;;;5.50;;
21488;SDS011;10906;45.194;5.684;2023-08-24T05:08:09;18.10;;;5.97;;
21488;SDS011;10906;45.194;5.684;2023-08-24T05:11:01;13.90;;;5.63;;
21488;SDS011;10906;45.194;5.684;2023-08-24T05:13:53;14.75;;;5.85;;
21488;SDS011;10906;45.194;5.684;2023-08-24T05:16:40;16.38;;;5.97;;
21488;SDS011;10906;45.194;5.684;2023-08-24T05:19:28;13.68;;;6.03;;
21488;SDS011;10906;45.194;5.684;2023-08-24T05:22:15;12.85;;;5.85;;
21488;SDS011;10906;45.194;5.684;2023-08-24T05:25:08;11.10;;;5.70;;
21488;SDS011;10906;45.194;5.684;2023-08-24T05:28:00;13.55;;;5.18;;
21488;SDS011;10906;45.194;5.684;2023-08-24T05:30:44;17.80;;;6.40;;
21488;SDS011;10906;45.194;5.684;2023-08-24T05:33:34;11.32;;;5.65;;
21488;SDS011;10906;45.194;5.684;2023-08-24T05:36:18;15.02;;;5.43;;
21488;SDS011;10906;45.194;5.684;2023-08-24T05:39:03;15.55;;;5.82;;
21488;SDS011;10906;45.194;5.684;2023-08-24T05:41:51;14.68;;;6.10;;
21488;SDS011;10906;45.194;5.684;2023-08-24T05:44:36;17.48;;;5.82;;
21488;SDS011;10906;45.194;5.684;2023-08-24T05:47:20;14.15;;;5.40;;
21488;SDS011;10906;45.194;5.684;2023-08-24T05:50:04;21.73;;;6.07;;
21488;SDS011;10906;45.194;5.684;2023-08-24T05:52:50;11.27;;;5.97;;
21488;SDS011;10906;45.194;5.684;2023-08-24T05:55:34;13.65;;;5.82;;
21488;SDS011;10906;45.194;5.684;2023-08-24T05:58:19;13.40;;;5.45;;
21488;SDS011;10906;45.194;5.684;2023-08-24T06:01:04;13.88;;;6.15;;
21488;SDS011;10906;45.194;5.684;2023-08-24T06:03:48;13.60;;;6.03;;
21488;SDS011;10906;45.194;5.684;2023-08-24T06:06:33;17.95;;;5.78;;
21488;SDS011;10906;45.194;5.684;2023-08-24T06:09:18;14.63;;;6.05;;
21488;SDS011;10906;45.194;5.684;2023-08-24T06:12:03;17.92;;;6.25;;
21488;SDS011;10906;45.194;5.684;2023-08-24T06:14:47;14.50;;;5.75;;
21488;SDS011;10906;45.194;5.684;2023-08-24T06:17:31;14.00;;;5.72;;
21488;SDS011;10906;45.194;5.684;2023-08-24T06:20:16;13.95;;;6.25;;
21488;SDS011;10906;45.194;5.684;2023-08-24T06:23:00;12.25;;;6.25;;
21488;SDS011;10906;45.194;5.684;2023-08-24T06:25:46;13.25;;;5.90;;
21488;SDS011;10906;45.194;5.684;2023-08-24T06:28:30;13.00;;;5.30;;
21488;SDS011;10906;45.194;5.684;2023-08-24T06:31:15;15.65;;;6.63;;
21488;SDS011;10906;45.194;5.684;2023-08-24T06:34:00;15.25;;;6.25;;
21488;SDS011;10906;45.194;5.684;2023-08-24T06:36:44;14.50;;;6.45;;
21488;SDS011;10906;45.194;5.684;2023-08-24T06:39:29;14.77;;;6.43;;
21488;SDS011;10906;45.194;5.684;2023-08-24T06:42:14;20.73;;;6.80;;
21488;SDS011;10906;45.194;5.684;2023-08-24T06:44:58;22.38;;;7.13;;
21488;SDS011;10906;45.194;5.684;2023-08-24T06:47:46;17.60;;;6.53;;
21488;SDS011;10906;45.194;5.684;2023-08-24T06:50:33;16.15;;;6.38;;
21488;SDS011;10906;45.194;5.684;2023-08-24T06:53:18;11.93;;;5.82;;
21488;SDS011;10906;45.194;5.684;2023-08-24T06:56:03;12.90;;;6.57;;
21488;SDS011;10906;45.194;5.684;2023-08-24T06:58:50;13.57;;;6.15;;
21488;SDS011;10906;45.194;5.684;2023-08-24T07:01:35;15.57;;;6.38;;
21488;SDS011;10906;45.194;5.684;2023-08-24T07:04:19;14.00;;;6.32;;
21488;SDS011;10906;45.194;5.684;2023-08-24T07:07:04;12.75;;;5.75;;
21488;SDS011;10906;45.194;5.684;2023-08-24T07:09:49;17.02;;;6.18;;
21488;SDS011;10906;45.194;5.684;2023-08-24T07:12:33;16.50;;;6.35;;
21488;SDS011;10906;45.194;5.684;2023-08-24T07:15:18;13.88;;;6.13;;
21488;SDS011;10906;45.194;5.684;2023-08-24T07:18:02;13.77;;;5.80;;
21488;SDS011;10906;45.194;5.684;2023-08-24T07:20:52;15.80;;;5.82;;
21488;SDS011;10906;45.194;5.684;2023-08-24T07:23:38;14.00;;;5.70;;
21488;SDS011;10906;45.194;5.684;2023-08-24T07:26:22;12.38;;;5.82;;
21488;SDS011;10906;45.194;5.684;2023-08-24T07:29:09;14.10;;;6.47;;
21488;SDS011;10906;45.194;5.684;2023-08-24T07:31:53;17.20;;;6.40;;
21488;SDS011;10906;45.194;5.684;2023-08-24T07:34:40;20.42;;;5.97;;
21488;SDS011;10906;45.194;5.684;2023-08-24T07:37:25;14.70;;;6.05;;
21488;SDS011;10906;45.194;5.684;2023-08-24T07:40:10;12.68;;;5.82;;
21488;SDS011;10906;45.194;5.684;2023-08-24T07:42:56;15.00;;;5.88;;
21488;SDS011;10906;45.194;5.684;2023-08-24T07:45:40;12.10;;;6.28;;
21488;SDS011;10906;45.194;5.684;2023-08-24T07:48:25;11.38;;;6.00;;
21488;SDS011;10906;45.194;5.684;2023-08-24T07:51:09;12.20;;;6.13;;
21488;SDS011;10906;45.194;5.684;2023-08-24T07:53:53;15.02;;;6.18;;
21488;SDS011;10906;45.194;5.684;2023-08-24T07:56:38;19.25;;;5.95;;
21488;SDS011;10906;45.194;5.684;2023-08-24T07:59:23;12.15;;;6.10;;
21488;SDS011;10906;45.194;5.684;2023-08-24T08:02:07;15.32;;;6.10;;
21488;SDS011;10906;45.194;5.684;2023-08-24T08:04:56;18.65;;;6.30;;
21488;SDS011;10906;45.194;5.684;2023-08-24T08:07:44;16.30;;;6.63;;
21488;SDS011;10906;45.194;5.684;2023-08-24T08:10:28;19.73;;;6.57;;
21488;SDS011;10906;45.194;5.684;2023-08-24T08:13:12;15.57;;;6.13;;
21488;SDS011;10906;45.194;5.684;2023-08-24T08:16:05;14.05;;;5.85;;
21488;SDS011;10906;45.194;5.684;2023-08-24T08:18:58;14.00;;;5.97;;
21488;SDS011;10906;45.194;5.684;2023-08-24T08:22:12;14.40;;;6.10;;
21488;SDS011;10906;45.194;5.684;2023-08-24T08:24:56;17.42;;;5.95;;
21488;SDS011;10906;45.194;5.684;2023-08-24T08:27:41;13.40;;;5.80;;
21488;SDS011;10906;45.194;5.684;2023-08-24T08:30:26;19.05;;;6.75;;
21488;SDS011;10906;45.194;5.684;2023-08-24T08:33:10;16.02;;;5.90;;
21488;SDS011;10906;45.194;5.684;2023-08-24T08:35:56;12.00;;;6.13;;
21488;SDS011;10906;45.194;5.684;2023-08-24T08:38:41;16.85;;;6.03;;
21488;SDS011;10906;45.194;5.684;2023-08-24T08:41:27;17.38;;;5.97;;
21488;SDS011;10906;45.194;5.684;2023-08-24T08:44:14;13.20;;;5.82;;
21488;SDS011;10906;45.194;5.684;2023-08-24T08:46:59;13.50;;;6.10;;
21488;SDS011;10906;45.194;5.684;2023-08-24T08:49:48;17.73;;;5.63;;
21488;SDS011;10906;45.194;5.684;2023-08-24T08:52:43;10.68;;;5.40;;
21488;SDS011;10906;45.194;5.684;2023-08-24T08:55:27;15.88;;;5.93;;
21488;SDS011;10906;45.194;5.684;2023-08-24T08:58:14;16.40;;;6.00;;
21488;SDS011;10906;45.194;5.684;2023-08-24T09:00:58;15.18;;;5.65;;
21488;SDS011;10906;45.194;5.684;2023-08-24T09:03:47;10.98;;;5.65;;
21488;SDS011;10906;45.194;5.684;2023-08-24T09:06:35;19.08;;;6.10;;
21488;SDS011;10906;45.194;5.684;2023-08-24T09:09:20;20.92;;;5.85;;
21488;SDS011;10906;45.194;5.684;2023-08-24T09:12:06;16.75;;;5.57;;
21488;SDS011;10906;45.194;5.684;2023-08-24T09:14:56;16.65;;;5.63;;
21488;SDS011;10906;45.194;5.684;2023-08-24T09:17:48;17.10;;;5.40;;
21488;SDS011;10906;45.194;5.684;2023-08-24T09:20:33;12.25;;;5.65;;
21488;SDS011;10906;45.194;5.684;2023-08-24T09:23:21;21.23;;;6.55;;
21488;SDS011;10906;45.194;5.684;2023-08-24T09:26:06;13.15;;;5.85;;
21488;SDS011;10906;45.194;5.684;2023-08-24T09:28:50;16.60;;;6.55;;
21488;SDS011;10906;45.194;5.684;2023-08-24T09:31:35;11.63;;;5.53;;
21488;SDS011;10906;45.194;5.684;2023-08-24T09:34:22;12.30;;;5.40;;
21488;SDS011;10906;45.194;5.684;2023-08-24T09:37:16;10.40;;;5.20;;
21488;SDS011;10906;45.194;5.684;2023-08-24T09:40:05;11.02;;;6.05;;
21488;SDS011;10906;45.194;5.684;2023-08-24T09:42:55;12.85;;;5.63;;
21488;SDS011;10906;45.194;5.684;2023-08-24T09:48:41;14.93;;;6.25;;
21488;SDS011;10906;45.194;5.684;2023-08-24T09:51:26;14.18;;;6.40;;
21488;SDS011;10906;45.194;5.684;2023-08-24T09:54:11;11.95;;;5.70;;
21488;SDS011;10906;45.194;5.684;2023-08-24T09:56:57;11.85;;;5.43;;
21488;SDS011;10906;45.194;5.684;2023-08-24T09:59:53;13.25;;;5.85;;
21488;SDS011;10906;45.194;5.684;2023-08-24T10:02:50;19.60;;;5.88;;
21488;SDS011;10906;45.194;5.684;2023-08-24T10:05:37;10.32;;;5.72;;
21488;SDS011;10906;45.194;5.684;2023-08-24T10:08:42;14.98;;;5.55;;
21488;SDS011;10906;45.194;5.684;2023-08-24T10:11:55;15.00;;;5.47;;
21488;SDS011;10906;45.194;5.684;2023-08-24T10:15:04;13.10;;;5.80;;
21488;SDS011;10906;45.194;5.684;2023-08-24T10:17:52;19.00;;;5.75;;
21488;SDS011;10906;45.194;5.684;2023-08-24T10:20:50;16.65;;;5.57;;
21488;SDS011;10906;45.194;5.684;2023-08-24T10:23:41;18.50;;;5.80;;
21488;SDS011;10906;45.194;5.684;2023-08-24T10:26:50;15.32;;;5.55;;
21488;SDS011;10906;45.194;5.684;2023-08-24T10:29:40;14.48;;;5.20;;
21488;SDS011;10906;45.194;5.684;2023-08-24T10:32:25;15.20;;;6.05;;
21488;SDS011;10906;45.194;5.684;2023-08-24T10:35:13;16.02;;;6.30;;
21488;SDS011;10906;45.194;5.684;2023-08-24T10:38:06;14.63;;;5.45;;
21488;SDS011;10906;45.194;5.684;2023-08-24T10:40:51;13.38;;;5.72;;
21488;SDS011;10906;45.194;5.684;2023-08-24T10:43:42;14.07;;;5.05;;
21488;SDS011;10906;45.194;5.684;2023-08-24T10:49:59;16.27;;;5.50;;
21488;SDS011;10906;45.194;5.684;2023-08-24T10:52:47;13.63;;;5.88;;
21488;SDS011;10906;45.194;5.684;2023-08-24T10:56:11;12.60;;;5.20;;
21488;SDS011;10906;45.194;5.684;2023-08-24T10:59:10;13.55;;;5.88;;
21488;SDS011;10906;45.194;5.684;2023-08-24T11:01:57;17.73;;;4.97;;
21488;SDS011;10906;45.194;5.684;2023-08-24T11:05:03;15.10;;;5.40;;
21488;SDS011;10906;45.194;5.684;2023-08-24T11:08:04;16.35;;;5.07;;
21488;SDS011;10906;45.194;5.684;2023-08-24T11:10:49;17.70;;;4.95;;
21488;SDS011;10906;45.194;5.684;2023-08-24T11:13:34;12.68;;;4.68;;
21488;SDS011;10906;45.194;5.684;2023-08-24T11:16:38;10.40;;;4.35;;
21488;SDS011;10906;45.194;5.684;2023-08-24T11:19:23;11.75;;;4.60;;
21488;SDS011;10906;45.194;5.684;2023-08-24T11:22:07;13.13;;;4.45;;
21488;SDS011;10906;45.194;5.684;2023-08-24T11:24:52;11.77;;;4.43;;
21488;SDS011;10906;45.194;5.684;2023-08-24T11:27:37;16.58;;;4.93;;
21488;SDS011;10906;45.194;5.684;2023-08-24T11:30:22;12.45;;;4.50;;
21488;SDS011;10906;45.194;5.684;2023-08-24T11:33:07;16.52;;;4.68;;
21488;SDS011;10906;45.194;5.684;2023-08-24T11:35:52;14.55;;;4.72;;
21488;SDS011;10906;45.194;5.684;2023-08-24T11:38:37;16.52;;;4.40;;
21488;SDS011;10906;45.194;5.684;2023-08-24T11:41:22;17.98;;;4.75;;
21488;SDS011;10906;45.194;5.684;2023-08-24T11:44:07;12.27;;;4.55;;
21488;SDS011;10906;45.194;5.684;2023-08-24T11:46:52;15.50;;;5.00;;
21488;SDS011;10906;45.194;5.684;2023-08-24T11:49:36;15.35;;;8.63;;
21488;SDS011;10906;45.194;5.684;2023-08-24T11:52:21;19.15;;;5.03;;
21488;SDS011;10906;45.194;5.684;2023-08-24T11:55:06;12.23;;;4.88;;
21488;SDS011;10906;45.194;5.684;2023-08-24T11:57:52;17.95;;;5.10;;
21488;SDS011;10906;45.194;5.684;2023-08-24T12:00:40;15.52;;;4.55;;
21488;SDS011;10906;45.194;5.684;2023-08-24T12:03:24;10.25;;;4.22;;
21488;SDS011;10906;45.194;5.684;2023-08-24T12:06:13;14.40;;;4.82;;
21488;SDS011;10906;45.194;5.684;2023-08-24T12:08:58;16.20;;;5.18;;
21488;SDS011;10906;45.194;5.684;2023-08-24T12:11:43;14.65;;;4.45;;
21488;SDS011;10906;45.194;5.684;2023-08-24T12:14:40;12.68;;;4.68;;
21488;SDS011;10906;45.194;5.684;2023-08-24T12:17:28;13.52;;;5.20;;
21488;SDS011;10906;45.194;5.684;2023-08-24T12:20:26;15.25;;;4.63;;
21488;SDS011;10906;45.194;5.684;2023-08-24T12:23:16;11.45;;;4.72;;
21488;SDS011;10906;45.194;5.684;2023-08-24T12:26:03;17.48;;;5.32;;
21488;SDS011;10906;45.194;5.684;2023-08-24T12:29:04;16.30;;;5.03;;
21488;SDS011;10906;45.194;5.684;2023-08-24T12:31:49;14.45;;;4.45;;
21488;SDS011;10906;45.194;5.684;2023-08-24T12:34:34;11.48;;;4.13;;
21488;SDS011;10906;45.194;5.684;2023-08-24T12:37:18;14.27;;;4.35;;
21488;SDS011;10906;45.194;5.684;2023-08-24T12:40:03;13.80;;;4.65;;
21488;SDS011;10906;45.194;5.684;2023-08-24T12:42:51;13.90;;;4.80;;
21488;SDS011;10906;45.194;5.684;2023-08-24T12:45:35;14.18;;;5.25;;
21488;SDS011;10906;45.194;5.684;2023-08-24T12:48:21;10.68;;;4.47;;
21488;SDS011;10906;45.194;5.684;2023-08-24T12:51:05;13.30;;;4.63;;
21488;SDS011;10906;45.194;5.684;2023-08-24T12:53:50;10.43;;;4.53;;
21488;SDS011;10906;45.194;5.684;2023-08-24T12:56:38;15.88;;;4.75;;
21488;SDS011;10906;45.194;5.684;2023-08-24T12:59:26;10.63;;;3.92;;
21488;SDS011;10906;45.194;5.684;2023-08-24T13:02:13;8.68;;;4.50;;
21488;SDS011;10906;45.194;5.684;2023-08-24T13:04:57;14.02;;;4.57;;
21488;SDS011;10906;45.194;5.684;2023-08-24T13:07:47;17.27;;;4.40;;
21488;SDS011;10906;45.194;5.684;2023-08-24T13:10:31;15.30;;;4.50;;
21488;SDS011;10906;45.194;5.684;2023-08-24T13:13:16;12.20;;;4.72;;
21488;SDS011;10906;45.194;5.684;2023-08-24T13:16:01;13.98;;;4.22;;
21488;SDS011;10906;45.194;5.684;2023-08-24T13:18:55;9.80;;;4.70;;
21488;SDS011;10906;45.194;5.684;2023-08-24T13:21:40;12.07;;;4.35;;
21488;SDS011;10906;45.194;5.684;2023-08-24T13:24:31;16.42;;;4.63;;
21488;SDS011;10906;45.194;5.684;2023-08-24T13:27:27;12.75;;;4.55;;
21488;SDS011;10906;45.194;5.684;2023-08-24T13:30:12;16.25;;;4.43;;
21488;SDS011;10906;45.194;5.684;2023-08-24T13:32:56;10.25;;;4.10;;
21488;SDS011;10906;45.194;5.684;2023-08-24T13:35:41;9.48;;;3.92;;
21488;SDS011;10906;45.194;5.684;2023-08-24T13:38:25;10.75;;;4.30;;
21488;SDS011;10906;45.194;5.684;2023-08-24T13:41:10;11.43;;;3.90;;
21488;SDS011;10906;45.194;5.684;2023-08-24T13:43:55;11.60;;;4.18;;
21488;SDS011;10906;45.194;5.684;2023-08-24T13:46:39;9.57;;;4.35;;
21488;SDS011;10906;45.194;5.684;2023-08-24T13:49:26;10.88;;;4.28;;
21488;SDS011;10906;45.194;5.684;2023-08-24T13:52:11;9.43;;;4.38;;
21488;SDS011;10906;45.194;5.684;2023-08-24T13:55:03;13.73;;;3.97;;
21488;SDS011;10906;45.194;5.684;2023-08-24T13:57:48;10.85;;;4.55;;
21488;SDS011;10906;45.194;5.684;2023-08-24T14:00:41;9.90;;;3.95;;
21488;SDS011;10906;45.194;5.684;2023-08-24T14:03:29;9.48;;;4.00;;
21488;SDS011;10906;45.194;5.684;2023-08-24T14:06:17;11.70;;;4.32;;
21488;SDS011;10906;45.194;5.684;2023-08-24T14:09:02;11.40;;;4.25;;
21488;SDS011;10906;45.194;5.684;2023-08-24T14:11:47;18.02;;;4.43;;
21488;SDS011;10906;45.194;5.684;2023-08-24T14:14:41;10.75;;;4.30;;
21488;SDS011;10906;45.194;5.684;2023-08-24T14:17:26;12.75;;;4.28;;
21488;SDS011;10906;45.194;5.684;2023-08-24T14:20:10;9.77;;;3.78;;
21488;SDS011;10906;45.194;5.684;2023-08-24T14:22:56;10.52;;;4.57;;
21488;SDS011;10906;45.194;5.684;2023-08-24T14:25:41;8.60;;;4.70;;
21488;SDS011;10906;45.194;5.684;2023-08-24T14:29:01;11.95;;;4.88;;
21488;SDS011;10906;45.194;5.684;2023-08-24T14:31:48;8.30;;;4.38;;
21488;SDS011;10906;45.194;5.684;2023-08-24T14:34:36;8.75;;;4.00;;
21488;SDS011;10906;45.194;5.684;2023-08-24T14:37:24;11.23;;;4.30;;
21488;SDS011;10906;45.194;5.684;2023-08-24T14:40:18;10.38;;;4.43;;
21488;SDS011;10906;45.194;5.684;2023-08-24T14:43:06;11.40;;;4.47;;
21488;SDS011;10906;45.194;5.684;2023-08-24T14:45:50;8.15;;;4.78;;
21488;SDS011;10906;45.194;5.684;2023-08-24T14:49:02;7.03;;;4.32;;
21488;SDS011;10906;45.194;5.684;2023-08-24T14:52:14;6.65;;;3.92;;
21488;SDS011;10906;45.194;5.684;2023-08-24T14:55:02;15.20;;;4.47;;
21488;SDS011;10906;45.194;5.684;2023-08-24T14:58:19;8.10;;;4.43;;
21488;SDS011;10906;45.194;5.684;2023-08-24T15:01:26;10.38;;;4.68;;
21488;SDS011;10906;45.194;5.684;2023-08-24T15:04:16;11.15;;;4.00;;
21488;SDS011;10906;45.194;5.684;2023-08-24T15:07:08;9.52;;;4.00;;
21488;SDS011;10906;45.194;5.684;2023-08-24T15:09:58;8.85;;;5.03;;
21488;SDS011;10906;45.194;5.684;2023-08-24T15:12:50;14.15;;;4.63;;
21488;SDS011;10906;45.194;5.684;2023-08-24T15:15:44;11.45;;;4.65;;
21488;SDS011;10906;45.194;5.684;2023-08-24T15:18:34;7.18;;;4.70;;
21488;SDS011;10906;45.194;5.684;2023-08-24T15:21:29;9.93;;;4.55;;
21488;SDS011;10906;45.194;5.684;2023-08-24T15:24:19;15.13;;;5.05;;
21488;SDS011;10906;45.194;5.684;2023-08-24T15:27:18;6.83;;;4.17;;
21488;SDS011;10906;45.194;5.684;2023-08-24T15:30:10;12.93;;;4.25;;
21488;SDS011;10906;45.194;5.684;2023-08-24T15:32:55;8.30;;;4.70;;
21488;SDS011;10906;45.194;5.684;2023-08-24T15:35:40;8.63;;;5.13;;
21488;SDS011;10906;45.194;5.684;2023-08-24T15:38:25;15.15;;;4.72;;
21488;SDS011;10906;45.194;5.684;2023-08-24T15:41:09;8.40;;;4.82;;
21488;SDS011;10906;45.194;5.684;2023-08-24T15:43:54;14.45;;;4.80;;
21488;SDS011;10906;45.194;5.684;2023-08-24T15:46:38;9.25;;;4.53;;
21488;SDS011;10906;45.194;5.684;2023-08-24T15:49:23;12.10;;;4.85;;
21488;SDS011;10906;45.194;5.684;2023-08-24T15:52:08;9.77;;;4.57;;
21488;SDS011;10906;45.194;5.684;2023-08-24T15:54:53;11.68;;;4.95;;
21488;SDS011;10906;45.194;5.684;2023-08-24T15:57:37;10.32;;;4.75;;
21488;SDS011;10906;45.194;5.684;2023-08-24T16:00:22;12.27;;;4.90;;
21488;SDS011;10906;45.194;5.684;2023-08-24T16:03:07;34.15;;;5.40;;
21488;SDS011;10906;45.194;5.684;2023-08-24T16:05:57;9.88;;;4.47;;
21488;SDS011;10906;45.194;5.684;2023-08-24T16:08:44;9.55;;;4.90;;
21488;SDS011;10906;45.194;5.684;2023-08-24T16:11:29;14.88;;;5.30;;
21488;SDS011;10906;45.194;5.684;2023-08-24T16:14:19;9.77;;;5.22;;
21488;SDS011;10906;45.194;5.684;2023-08-24T16:17:03;8.13;;;4.20;;
21488;SDS011;10906;45.194;5.684;2023-08-24T16:19:48;9.60;;;5.25;;
21488;SDS011;10906;45.194;5.684;2023-08-24T16:22:32;11.30;;;5.28;;
21488;SDS011;10906;45.194;5.684;2023-08-24T16:31:26;8.02;;;4.80;;
21488;SDS011;10906;45.194;5.684;2023-08-24T16:34:11;10.48;;;5.15;;
21488;SDS011;10906;45.194;5.684;2023-08-24T16:37:01;8.15;;;5.07;;
21488;SDS011;10906;45.194;5.684;2023-08-24T16:39:52;6.90;;;4.90;;
21488;SDS011;10906;45.194;5.684;2023-08-24T16:43:12;8.10;;;5.15;;
21488;SDS011;10906;45.194;5.684;2023-08-24T16:46:49;12.38;;;5.82;;
21488;SDS011;10906;45.194;5.684;2023-08-24T16:50:20;5.55;;;5.00;;
21488;SDS011;10906;45.194;5.684;2023-08-24T16:53:18;8.27;;;5.60;;
21488;SDS011;10906;45.194;5.684;2023-08-24T16:56:03;9.25;;;5.55;;
21488;SDS011;10906;45.194;5.684;2023-08-24T16:58:47;8.05;;;5.40;;
21488;SDS011;10906;45.194;5.684;2023-08-24T17:01:32;12.00;;;5.60;;
21488;SDS011;10906;45.194;5.684;2023-08-24T17:04:19;10.20;;;5.38;;
21488;SDS011;10906;45.194;5.684;2023-08-24T17:07:08;10.15;;;5.88;;
21488;SDS011;10906;45.194;5.684;2023-08-24T17:09:52;10.80;;;5.70;;
21488;SDS011;10906;45.194;5.684;2023-08-24T17:12:36;11.15;;;5.63;;
21488;SDS011;10906;45.194;5.684;2023-08-24T17:15:21;9.02;;;5.35;;
21488;SDS011;10906;45.194;5.684;2023-08-24T17:18:05;13.30;;;5.18;;
21488;SDS011;10906;45.194;5.684;2023-08-24T17:20:50;9.23;;;5.90;;
21488;SDS011;10906;45.194;5.684;2023-08-24T17:23:34;11.70;;;6.03;;
21488;SDS011;10906;45.194;5.684;2023-08-24T17:26:27;9.90;;;5.57;;
21488;SDS011;10906;45.194;5.684;2023-08-24T17:29:13;9.13;;;5.93;;
21488;SDS011;10906;45.194;5.684;2023-08-24T17:31:58;8.15;;;5.70;;
21488;SDS011;10906;45.194;5.684;2023-08-24T17:34:42;10.23;;;5.75;;
21488;SDS011;10906;45.194;5.684;2023-08-24T17:37:27;13.95;;;5.70;;
21488;SDS011;10906;45.194;5.684;2023-08-24T17:40:11;6.78;;;5.70;;
21488;SDS011;10906;45.194;5.684;2023-08-24T17:42:56;10.85;;;6.55;;
21488;SDS011;10906;45.194;5.684;2023-08-24T17:45:40;9.90;;;6.47;;
21488;SDS011;10906;45.194;5.684;2023-08-24T17:48:24;8.40;;;5.90;;
21488;SDS011;10906;45.194;5.684;2023-08-24T17:51:09;10.45;;;5.95;;
21488;SDS011;10906;45.194;5.684;2023-08-24T17:53:53;11.80;;;6.50;;
21488;SDS011;10906;45.194;5.684;2023-08-24T17:56:38;9.20;;;6.95;;
21488;SDS011;10906;45.194;5.684;2023-08-24T17:59:22;10.02;;;6.35;;
21488;SDS011;10906;45.194;5.684;2023-08-24T18:02:07;8.77;;;5.68;;
21488;SDS011;10906;45.194;5.684;2023-08-24T18:04:51;7.75;;;5.82;;
21488;SDS011;10906;45.194;5.684;2023-08-24T18:07:36;7.95;;;6.00;;
21488;SDS011;10906;45.194;5.684;2023-08-24T18:10:21;8.13;;;6.07;;
21488;SDS011;10906;45.194;5.684;2023-08-24T18:13:05;11.63;;;5.45;;
21488;SDS011;10906;45.194;5.684;2023-08-24T18:15:50;13.90;;;6.63;;
21488;SDS011;10906;45.194;5.684;2023-08-24T18:18:34;11.85;;;6.40;;
21488;SDS011;10906;45.194;5.684;2023-08-24T18:21:19;7.15;;;6.22;;
21488;SDS011;10906;45.194;5.684;2023-08-24T18:24:04;11.27;;;6.00;;
21488;SDS011;10906;45.194;5.684;2023-08-24T18:26:48;6.75;;;5.80;;
21488;SDS011;10906;45.194;5.684;2023-08-24T18:29:33;9.15;;;5.95;;
21488;SDS011;10906;45.194;5.684;2023-08-24T18:32:17;8.50;;;5.95;;
21488;SDS011;10906;45.194;5.684;2023-08-24T18:35:03;14.38;;;6.82;;
21488;SDS011;10906;45.194;5.684;2023-08-24T18:37:57;9.20;;;5.80;;
21488;SDS011;10906;45.194;5.684;2023-08-24T18:40:42;8.88;;;5.63;;
21488;SDS011;10906;45.194;5.684;2023-08-24T18:43:32;10.52;;;6.18;;
21488;SDS011;10906;45.194;5.684;2023-08-24T18:46:16;8.55;;;5.55;;
21488;SDS011;10906;45.194;5.684;2023-08-24T18:49:01;7.25;;;5.18;;
21488;SDS011;10906;45.194;5.684;2023-08-24T18:51:53;8.50;;;5.45;;
21488;SDS011;10906;45.194;5.684;2023-08-24T18:54:42;6.30;;;5.47;;
21488;SDS011;10906;45.194;5.684;2023-08-24T18:57:36;11.93;;;5.78;;
21488;SDS011;10906;45.194;5.684;2023-08-24T19:00:23;9.15;;;5.78;;
21488;SDS011;10906;45.194;5.684;2023-08-24T19:03:14;7.95;;;5.75;;
21488;SDS011;10906;45.194;5.684;2023-08-24T19:06:01;6.35;;;5.53;;
21488;SDS011;10906;45.194;5.684;2023-08-24T19:08:49;9.25;;;5.90;;
21488;SDS011;10906;45.194;5.684;2023-08-24T19:11:36;8.38;;;5.60;;
21488;SDS011;10906;45.194;5.684;2023-08-24T19:14:20;8.43;;;5.82;;
21488;SDS011;10906;45.194;5.684;2023-08-24T19:17:05;9.90;;;6.57;;
21488;SDS011;10906;45.194;5.684;2023-08-24T19:19:49;10.75;;;6.65;;
21488;SDS011;10906;45.194;5.684;2023-08-24T19:22:35;9.88;;;5.78;;
21488;SDS011;10906;45.194;5.684;2023-08-24T19:25:22;12.50;;;6.82;;
21488;SDS011;10906;45.194;5.684;2023-08-24T19:28:13;9.27;;;5.65;;
21488;SDS011;10906;45.194;5.684;2023-08-24T19:31:01;7.83;;;6.10;;
21488;SDS011;10906;45.194;5.684;2023-08-24T19:33:45;9.90;;;5.57;;
21488;SDS011;10906;45.194;5.684;2023-08-24T19:36:35;9.35;;;6.50;;
21488;SDS011;10906;45.194;5.684;2023-08-24T19:39:36;11.00;;;5.97;;
21488;SDS011;10906;45.194;5.684;2023-08-24T19:42:21;9.27;;;6.60;;
21488;SDS011;10906;45.194;5.684;2023-08-24T19:45:05;9.05;;;6.15;;
21488;SDS011;10906;45.194;5.684;2023-08-24T19:47:50;10.00;;;5.95;;
21488;SDS011;10906;45.194;5.684;2023-08-24T19:50:44;6.35;;;5.75;;
21488;SDS011;10906;45.194;5.684;2023-08-24T19:53:31;6.63;;;5.50;;
21488;SDS011;10906;45.194;5.684;2023-08-24T19:56:18;8.57;;;6.90;;
21488;SDS011;10906;45.194;5.684;2023-08-24T19:59:12;17.88;;;6.60;;
21488;SDS011;10906;45.194;5.684;2023-08-24T20:01:57;9.30;;;5.70;;
21488;SDS011;10906;45.194;5.684;2023-08-24T20:04:53;8.75;;;5.88;;
21488;SDS011;10906;45.194;5.684;2023-08-24T20:07:39;7.78;;;5.70;;
21488;SDS011;10906;45.194;5.684;2023-08-24T20:10:36;11.43;;;6.05;;
21488;SDS011;10906;45.194;5.684;2023-08-24T20:13:25;9.55;;;6.50;;
21488;SDS011;10906;45.194;5.684;2023-08-24T20:16:11;8.30;;;6.22;;
21488;SDS011;10906;45.194;5.684;2023-08-24T20:19:07;8.13;;;5.88;;
21488;SDS011;10906;45.194;5.684;2023-08-24T20:21:52;11.20;;;6.60;;
21488;SDS011;10906;45.194;5.684;2023-08-24T20:24:37;11.75;;;6.28;;
21488;SDS011;10906;45.194;5.684;2023-08-24T20:27:27;10.68;;;6.30;;
21488;SDS011;10906;45.194;5.684;2023-08-24T20:30:18;7.20;;;6.43;;
21488;SDS011;10906;45.194;5.684;2023-08-24T20:33:05;11.07;;;6.50;;
21488;SDS011;10906;45.194;5.684;2023-08-24T20:39:52;10.82;;;6.40;;
21488;SDS011;10906;45.194;5.684;2023-08-24T20:42:40;10.98;;;6.07;;
21488;SDS011;10906;45.194;5.684;2023-08-24T20:45:34;8.73;;;5.97;;
21488;SDS011;10906;45.194;5.684;2023-08-24T20:48:24;6.68;;;5.90;;
21488;SDS011;10906;45.194;5.684;2023-08-24T20:51:09;7.43;;;6.07;;
21488;SDS011;10906;45.194;5.684;2023-08-24T20:53:56;9.68;;;6.63;;
21488;SDS011;10906;45.194;5.684;2023-08-24T20:56:45;8.05;;;6.00;;
21488;SDS011;10906;45.194;5.684;2023-08-24T20:59:29;10.05;;;6.25;;
21488;SDS011;10906;45.194;5.684;2023-08-24T21:02:23;9.02;;;5.60;;
21488;SDS011;10906;45.194;5.684;2023-08-24T21:05:08;9.70;;;6.03;;
21488;SDS011;10906;45.194;5.684;2023-08-24T21:08:01;8.73;;;6.15;;
21488;SDS011;10906;45.194;5.684;2023-08-24T21:10:50;8.98;;;6.10;;
21488;SDS011;10906;45.194;5.684;2023-08-24T21:13:35;7.07;;;5.22;;
21488;SDS011;10906;45.194;5.684;2023-08-24T21:16:26;9.85;;;5.57;;
21488;SDS011;10906;45.194;5.684;2023-08-24T21:19:21;9.63;;;5.82;;
21488;SDS011;10906;45.194;5.684;2023-08-24T21:22:06;8.65;;;5.78;;
21488;SDS011;10906;45.194;5.684;2023-08-24T21:24:58;13.48;;;6.97;;
21488;SDS011;10906;45.194;5.684;2023-08-24T21:27:45;9.38;;;5.63;;
21488;SDS011;10906;45.194;5.684;2023-08-24T21:30:30;8.05;;;5.32;;
21488;SDS011;10906;45.194;5.684;2023-08-24T21:33:24;10.10;;;5.63;;